Time;durP1;ratioP1;P1;durP2;ratioP2;P2;SDS_P1;SDS_P2;PMS_P1;PMS_P2;Temp;Humidity;BMP_temperature;BMP_pressure;BME280_temperature;BME280_humidity;BME280_pressure;Samples;Min_cycle;Max_cycle;Signal;HPM_P1;HPM_P2
2022/08/11 00:01:52;;;;;;;4.10;1.70;;;;;;;;;;5113521;28;20041;-79
2022/08/11 00:04:20;;;;;;;4.30;1.45;;;;;;;;;;5113547;28;20473;-79
2022/08/11 00:06:47;;;;;;;5.32;2.00;;;;;;;;;;5113554;28;20024;-79
2022/08/11 00:09:17;;;;;;;3.38;1.50;;;;;;;;;;5113412;28;20125;-78
2022/08/11 00:11:47;;;;;;;2.97;1.42;;;;;;;;;;5113392;28;20236;-79
2022/08/11 00:14:15;;;;;;;3.33;1.50;;;;;;;;;;5113455;28;20072;-79
2022/08/11 00:16:41;;;;;;;3.67;1.50;;;;;;;;;;5113475;28;20070;-79
2022/08/11 00:19:07;;;;;;;3.38;1.70;;;;;;;;;;5113604;28;20023;-79
2022/08/11 00:21:40;;;;;;;4.63;1.45;;;;;;;;;;5113463;28;20519;-78
2022/08/11 00:24:07;;;;;;;2.25;1.60;;;;;;;;;;5113208;28;20031;-79
2022/08/11 00:26:34;;;;;;;4.13;1.50;;;;;;;;;;5113368;28;20369;-78
2022/08/11 00:29:10;;;;;;;3.38;1.60;;;;;;;;;;5113535;28;20091;-79
2022/08/11 00:31:36;;;;;;;2.63;1.40;;;;;;;;;;5113322;28;20028;-79
2022/08/11 00:34:03;;;;;;;8.85;1.60;;;;;;;;;;5113610;28;20098;-78
2022/08/11 00:36:38;;;;;;;2.10;1.50;;;;;;;;;;5116989;28;20023;-79
2022/08/11 00:39:05;;;;;;;5.78;1.85;;;;;;;;;;5117171;28;20039;-79
2022/08/11 00:41:49;;;;;;;3.45;1.92;;;;;;;;;;5117257;28;20053;-79
2022/08/11 00:44:28;;;;;;;4.05;1.80;;;;;;;;;;5117450;28;20024;-79
2022/08/11 00:47:13;;;;;;;14.98;2.67;;;;;;;;;;5117242;28;20028;-79
2022/08/11 00:49:44;;;;;;;4.13;1.83;;;;;;;;;;5116988;28;20094;-79
2022/08/11 00:52:19;;;;;;;3.42;1.77;;;;;;;;;;5117187;28;20058;-79
2022/08/11 00:54:48;;;;;;;8.30;1.80;;;;;;;;;;5117240;28;20023;-79
2022/08/11 00:57:34;;;;;;;4.30;1.63;;;;;;;;;;5116477;28;20160;-79
2022/08/11 01:00:22;;;;;;;6.88;1.80;;;;;;;;;;5116988;28;20019;-79
2022/08/11 01:02:48;;;;;;;2.67;1.58;;;;;;;;;;5117045;28;20016;-78
2022/08/11 01:05:23;;;;;;;3.83;1.42;;;;;;;;;;5116020;28;20075;-78
2022/08/11 01:08:07;;;;;;;6.15;1.85;;;;;;;;;;5115824;28;20027;-78
2022/08/11 01:10:46;;;;;;;4.85;1.90;;;;;;;;;;5116103;28;20034;-79
2022/08/11 01:13:28;;;;;;;3.78;1.80;;;;;;;;;;5097660;28;20024;-78
2022/08/11 01:16:11;;;;;;;4.60;1.83;;;;;;;;;;5116275;28;20477;-78
2022/08/11 01:18:56;;;;;;;4.72;1.90;;;;;;;;;;5116021;28;20088;-78
2022/08/11 01:21:55;;;;;;;2.70;1.60;;;;;;;;;;5097910;28;20027;-79
2022/08/11 01:24:21;;;;;;;2.80;1.65;;;;;;;;;;5116702;28;20126;-79
2022/08/11 01:26:57;;;;;;;4.07;1.77;;;;;;;;;;5116146;28;20037;-79
2022/08/11 01:29:23;;;;;;;7.53;2.05;;;;;;;;;;5116456;28;20419;-79
2022/08/11 01:32:07;;;;;;;3.25;1.73;;;;;;;;;;5116462;28;20019;-78
2022/08/11 01:34:53;;;;;;;5.75;1.58;;;;;;;;;;5116227;28;20023;-78
2022/08/11 01:37:40;;;;;;;4.63;1.90;;;;;;;;;;5114794;28;20445;-79
2022/08/11 01:40:06;;;;;;;5.95;2.05;;;;;;;;;;5085160;28;20036;-79
2022/08/11 01:45:29;;;;;;;3.28;1.70;;;;;;;;;;5095684;28;20412;-79
2022/08/11 01:48:02;;;;;;;3.72;2.03;;;;;;;;;;5095006;28;20030;-78
2022/08/11 01:50:37;;;;;;;4.25;2.35;;;;;;;;;;5095733;28;20081;-79
2022/08/11 01:53:21;;;;;;;6.70;2.15;;;;;;;;;;5095202;28;20059;-78
2022/08/11 01:56:01;;;;;;;4.88;2.20;;;;;;;;;;5095312;28;20355;-79
2022/08/11 01:58:43;;;;;;;11.63;2.28;;;;;;;;;;5095195;28;20481;-78
2022/08/11 02:01:21;;;;;;;5.40;1.92;;;;;;;;;;5095678;28;20028;-79
2022/08/11 02:03:53;;;;;;;5.63;2.28;;;;;;;;;;5076924;28;20020;-79
2022/08/11 02:06:55;;;;;;;7.00;2.10;;;;;;;;;;5095244;28;20028;-79
2022/08/11 02:09:43;;;;;;;3.55;1.88;;;;;;;;;;5095565;28;20024;-79
2022/08/11 02:12:15;;;;;;;4.65;2.03;;;;;;;;;;5077314;28;20371;-78
2022/08/11 02:14:54;;;;;;;6.60;2.53;;;;;;;;;;5095264;28;20039;-78
2022/08/11 02:17:22;;;;;;;5.10;2.65;;;;;;;;;;5095439;28;20023;-79
2022/08/11 02:25:27;;;;;;;3.90;1.95;;;;;;;;;;5094910;28;20112;-78
2022/08/11 02:28:11;;;;;;;7.60;2.35;;;;;;;;;;5076833;28;20131;-78
2022/08/11 02:33:21;;;;;;;4.88;2.15;;;;;;;;;;5094560;28;20032;-78
2022/08/11 02:33:45;;;;;;;4.63;2.55;;;;;;;;;;5094553;28;20032;-79
2022/08/11 02:36:21;;;;;;;6.35;2.53;;;;;;;;;;5094716;28;20028;-79
2022/08/11 02:39:01;;;;;;;6.82;2.47;;;;;;;;;;5094378;28;20068;-79
2022/08/11 02:44:39;;;;;;;6.78;2.70;;;;;;;;;;5095084;28;20031;-79
2022/08/11 02:47:16;;;;;;;7.75;2.75;;;;;;;;;;5094611;28;20044;-78
2022/08/11 02:49:56;;;;;;;6.43;2.72;;;;;;;;;;5094527;28;20098;-78
2022/08/11 02:52:36;;;;;;;5.63;2.60;;;;;;;;;;5094082;28;20076;-78
2022/08/11 02:55:07;;;;;;;5.90;2.60;;;;;;;;;;5094325;28;20028;-78
2022/08/11 02:57:38;;;;;;;11.15;2.90;;;;;;;;;;5114218;28;20480;-78
2022/08/11 03:00:06;;;;;;;4.07;2.55;;;;;;;;;;5128639;27;20024;-79
2022/08/11 03:02:54;;;;;;;8.25;3.10;;;;;;;;;;5126750;27;20026;-79
2022/08/11 03:05:50;;;;;;;4.35;2.63;;;;;;;;;;5127140;27;20369;-79
2022/08/11 03:08:22;;;;;;;5.93;2.90;;;;;;;;;;5056637;28;20082;-78
2022/08/11 03:16:43;;;;;;;3.35;2.80;;;;;;;;;;5101784;28;20023;-79
2022/08/11 03:16:44;;;;;;;4.93;3.03;;;;;;;;;;5128890;27;20038;-79
2022/08/11 03:19:13;;;;;;;9.73;4.10;;;;;;;;;;5126349;27;20030;-79
2022/08/11 03:21:47;;;;;;;4.15;3.08;;;;;;;;;;5134670;27;20019;-78
2022/08/11 03:24:31;;;;;;;3.90;2.63;;;;;;;;;;5124872;27;20027;-78
2022/08/11 03:27:00;;;;;;;3.90;2.90;;;;;;;;;;5093894;28;20024;-78
2022/08/11 03:29:35;;;;;;;5.13;3.22;;;;;;;;;;5110576;28;20473;-79
2022/08/11 03:32:05;;;;;;;6.25;3.35;;;;;;;;;;5114148;28;20019;-78
2022/08/11 03:34:31;;;;;;;4.15;3.13;;;;;;;;;;5112766;28;20489;-79
2022/08/11 03:37:06;;;;;;;5.43;3.13;;;;;;;;;;5107253;28;20024;-78
2022/08/11 03:39:32;;;;;;;4.28;2.97;;;;;;;;;;5113830;28;20449;-78
2022/08/11 03:42:01;;;;;;;8.93;3.08;;;;;;;;;;5114331;28;20098;-78
2022/08/11 03:45:06;;;;;;;4.65;3.30;;;;;;;;;;5114001;28;20458;-78
2022/08/11 03:47:49;;;;;;;7.30;3.30;;;;;;;;;;5031461;28;20353;-78
2022/08/11 03:50:33;;;;;;;5.07;3.00;;;;;;;;;;5031540;28;20035;-78
2022/08/11 03:53:18;;;;;;;6.78;2.85;;;;;;;;;;5090520;28;20436;-79
2022/08/11 03:56:02;;;;;;;5.18;3.08;;;;;;;;;;5114250;28;20035;-79
2022/08/11 03:58:39;;;;;;;5.38;2.80;;;;;;;;;;5113831;28;20059;-79
2022/08/11 04:01:21;;;;;;;4.63;2.85;;;;;;;;;;5114693;28;20348;-79
2022/08/11 04:03:57;;;;;;;4.88;2.88;;;;;;;;;;5114131;28;20019;-78
2022/08/11 04:06:49;;;;;;;7.28;3.30;;;;;;;;;;5114534;28;20016;-79
2022/08/11 04:09:34;;;;;;;4.60;3.05;;;;;;;;;;5114030;28;20019;-79
2022/08/11 04:12:09;;;;;;;4.40;3.03;;;;;;;;;;5113830;28;20423;-78
2022/08/11 04:17:51;;;;;;;3.70;2.92;;;;;;;;;;5113381;28;20077;-79
2022/08/11 04:20:35;;;;;;;7.65;3.70;;;;;;;;;;5098524;28;20111;-78
2022/08/11 04:23:11;;;;;;;5.07;3.08;;;;;;;;;;5093019;28;20032;-78
2022/08/11 04:25:56;;;;;;;5.50;3.15;;;;;;;;;;5130244;28;20025;-78
2022/08/11 04:28:41;;;;;;;5.30;3.00;;;;;;;;;;5093120;28;20056;-78
2022/08/11 04:31:24;;;;;;;7.15;3.75;;;;;;;;;;5116455;28;20461;-79
2022/08/11 04:34:05;;;;;;;6.40;2.90;;;;;;;;;;5125630;28;20094;-79
2022/08/11 04:39:55;;;;;;;5.70;3.25;;;;;;;;;;5093548;28;20535;-78
2022/08/11 04:45:36;;;;;;;7.90;3.33;;;;;;;;;;5095632;28;20039;-79
2022/08/11 05:03:07;;;;;;;7.03;3.33;;;;;;;;;;5092398;28;20044;-78
2022/08/11 05:05:52;;;;;;;5.53;3.13;;;;;;;;;;5091920;28;20466;-78
2022/08/11 05:08:36;;;;;;;5.65;3.30;;;;;;;;;;5090609;28;20024;-78
2022/08/11 05:11:02;;;;;;;6.90;3.30;;;;;;;;;;5072387;28;20020;-78
2022/08/11 05:36:11;;;;;;;7.82;3.40;;;;;;;;;;5095597;28;20039;-77
2022/08/11 05:58:06;;;;;;;5.47;2.67;;;;;;;;;;5115501;28;20065;-79
2022/08/11 06:00:41;;;;;;;5.25;2.30;;;;;;;;;;5115577;28;20283;-79
2022/08/11 06:03:09;;;;;;;7.28;2.47;;;;;;;;;;5115012;28;20034;-79
2022/08/11 06:05:42;;;;;;;3.40;2.00;;;;;;;;;;5114844;28;20097;-79
2022/08/11 06:08:09;;;;;;;8.32;2.60;;;;;;;;;;5117396;27;20073;-78
2022/08/11 06:10:40;;;;;;;6.63;3.00;;;;;;;;;;5099397;27;20027;-78
2022/08/11 06:13:06;;;;;;;5.50;2.80;;;;;;;;;;5122497;27;20038;-78
2022/08/11 06:15:33;;;;;;;9.20;2.30;;;;;;;;;;5122856;27;20102;-78
2022/08/11 06:18:01;;;;;;;7.43;2.28;;;;;;;;;;5124965;27;20027;-78
2022/08/11 06:20:35;;;;;;;4.70;2.00;;;;;;;;;;5127264;27;20508;-79
2022/08/11 06:23:05;;;;;;;5.32;1.90;;;;;;;;;;5128520;27;20069;-78
2022/08/11 06:25:34;;;;;;;3.53;2.00;;;;;;;;;;5114775;27;20023;-77
2022/08/11 06:28:02;;;;;;;9.07;1.88;;;;;;;;;;5125463;27;20029;-78
2022/08/11 06:30:39;;;;;;;4.45;2.17;;;;;;;;;;5122665;27;20031;-78
2022/08/11 06:33:08;;;;;;;7.35;2.25;;;;;;;;;;5122305;27;20023;-78
2022/08/11 06:35:52;;;;;;;6.60;2.40;;;;;;;;;;5123058;27;20473;-78
2022/08/11 06:38:29;;;;;;;4.95;2.38;;;;;;;;;;5120108;27;20047;-78
2022/08/11 06:43:58;;;;;;;6.38;2.00;;;;;;;;;;5116484;27;20520;-78
2022/08/11 06:46:30;;;;;;;5.50;2.42;;;;;;;;;;5122501;27;20468;-78
2022/08/11 06:48:57;;;;;;;5.20;2.20;;;;;;;;;;5124509;27;20023;-77
2022/08/11 06:51:23;;;;;;;4.70;1.60;;;;;;;;;;5094820;28;20039;-78
2022/08/11 06:53:58;;;;;;;4.10;1.90;;;;;;;;;;5123816;27;20051;-78
2022/08/11 07:01:55;;;;;;;3.97;1.73;;;;;;;;;;5119875;27;20089;-78
2022/08/11 07:04:42;;;;;;;9.10;1.95;;;;;;;;;;5125063;27;20455;-78
2022/08/11 07:15:55;;;;;;;12.05;2.00;;;;;;;;;;5117283;27;20042;-78
2022/08/11 07:29:34;;;;;;;6.85;2.00;;;;;;;;;;5116593;27;20023;-78
2022/08/11 07:32:06;;;;;;;3.60;1.63;;;;;;;;;;5113585;28;20134;-78
2022/08/11 07:34:33;;;;;;;6.78;1.95;;;;;;;;;;5113446;28;20027;-80
2022/08/11 07:37:02;;;;;;;2.28;1.80;;;;;;;;;;5095115;28;20028;-78
2022/08/11 07:39:30;;;;;;;4.28;1.90;;;;;;;;;;5113134;28;20558;-80
2022/08/11 07:41:57;;;;;;;14.15;1.90;;;;;;;;;;5098224;27;20550;-78
2022/08/11 07:44:28;;;;;;;5.63;2.20;;;;;;;;;;5117438;27;20099;-78
2022/08/11 07:52:33;;;;;;;11.05;2.33;;;;;;;;;;5092638;28;20055;-78
2022/08/11 07:55:00;;;;;;;3.92;1.45;;;;;;;;;;5092593;28;20068;-75
2022/08/11 08:19:31;;;;;;;4.78;1.70;;;;;;;;;;5112109;28;20401;-75
2022/08/11 08:21:57;;;;;;;8.98;1.73;;;;;;;;;;5112357;28;20038;-75
2022/08/11 08:24:24;;;;;;;4.05;1.73;;;;;;;;;;5112016;28;20019;-75
2022/08/11 08:27:00;;;;;;;2.85;1.83;;;;;;;;;;5112332;28;20034;-76
2022/08/11 08:32:21;;;;;;;7.85;1.80;;;;;;;;;;5112279;28;20027;-75
2022/08/11 08:34:51;;;;;;;5.05;1.52;;;;;;;;;;5093956;28;20119;-75
2022/08/11 08:37:18;;;;;;;2.47;1.30;;;;;;;;;;5112197;28;20031;-75
2022/08/11 08:39:45;;;;;;;4.20;1.60;;;;;;;;;;5112141;28;20377;-75
2022/08/11 08:42:13;;;;;;;6.25;2.53;;;;;;;;;;5112281;28;20109;-74
2022/08/11 08:44:44;;;;;;;5.25;1.67;;;;;;;;;;5112160;28;20027;-74
2022/08/11 08:47:13;;;;;;;7.72;1.90;;;;;;;;;;5112168;28;20099;-74
2022/08/11 08:49:48;;;;;;;3.10;1.73;;;;;;;;;;5112324;28;20409;-75
2022/08/11 08:52:14;;;;;;;6.05;1.75;;;;;;;;;;5113152;28;20024;-79
2022/08/11 08:54:42;;;;;;;5.05;1.50;;;;;;;;;;5113277;28;20063;-79
2022/08/11 08:57:10;;;;;;;2.53;1.55;;;;;;;;;;5099600;28;20031;-79
2022/08/11 08:59:41;;;;;;;4.15;1.80;;;;;;;;;;5096586;28;20369;-79
2022/08/11 09:02:11;;;;;;;3.22;1.90;;;;;;;;;;5100744;28;20024;-79
2022/08/11 09:04:38;;;;;;;2.70;1.70;;;;;;;;;;5121872;27;20053;-78
2022/08/11 09:07:12;;;;;;;5.13;1.90;;;;;;;;;;5126241;27;20481;-78
2022/08/11 09:09:42;;;;;;;2.95;1.80;;;;;;;;;;5133878;27;20076;-79
2022/08/11 09:12:10;;;;;;;7.25;1.90;;;;;;;;;;5126582;27;20436;-81
2022/08/11 09:17:22;;;;;;;5.63;2.17;;;;;;;;;;5118842;27;20045;-81
2022/08/11 09:19:59;;;;;;;5.43;1.98;;;;;;;;;;5130131;27;21317;-78
2022/08/11 09:27:56;;;;;;;7.60;2.05;;;;;;;;;;5124133;27;20047;-78
2022/08/11 09:30:25;;;;;;;5.55;1.70;;;;;;;;;;5127424;27;20023;-78
2022/08/11 09:32:59;;;;;;;5.93;1.80;;;;;;;;;;5126713;27;20372;-77
2022/08/11 09:35:29;;;;;;;16.35;2.13;;;;;;;;;;5122607;27;20032;-78
2022/08/11 09:40:43;;;;;;;4.18;1.88;;;;;;;;;;5131580;27;20035;-78
2022/08/11 09:45:56;;;;;;;4.43;2.00;;;;;;;;;;5114166;28;20062;-78
2022/08/11 09:48:24;;;;;;;10.80;1.98;;;;;;;;;;5122232;27;20023;-78
2022/08/11 09:50:54;;;;;;;3.97;1.75;;;;;;;;;;5118260;27;20106;-78
2022/08/11 09:53:21;;;;;;;2.65;1.65;;;;;;;;;;5115388;28;20047;-79
2022/08/11 09:55:47;;;;;;;13.20;1.75;;;;;;;;;;5113467;27;20047;-78
2022/08/11 09:58:17;;;;;;;3.50;1.65;;;;;;;;;;5120573;27;20030;-78
2022/08/11 10:00:44;;;;;;;4.07;1.80;;;;;;;;;;5131064;27;20162;-79
2022/08/11 10:03:13;;;;;;;5.05;1.50;;;;;;;;;;5117088;27;20042;-79
2022/08/11 10:08:29;;;;;;;7.65;1.90;;;;;;;;;;5118894;27;20106;-79
2022/08/11 10:10:56;;;;;;;2.83;1.55;;;;;;;;;;5117792;27;20023;-80
2022/08/11 10:13:25;;;;;;;6.03;1.52;;;;;;;;;;5125763;27;20094;-79
2022/08/11 10:15:57;;;;;;;3.47;1.75;;;;;;;;;;5122796;27;20097;-79
2022/08/11 10:18:47;;;;;;;;;;;;;;;;;;5117363;27;20020;-79
2022/08/11 10:21:17;;;;;;;5.30;1.60;;;;;;;;;;5104564;27;19984;-79
2022/08/11 10:34:46;;;;;;;7.82;1.70;;;;;;;;;;5112273;27;20588;-79
2022/08/11 10:37:13;;;;;;;2.92;1.70;;;;;;;;;;5126211;27;20462;-79
2022/08/11 10:39:40;;;;;;;5.80;1.50;;;;;;;;;;5123553;27;20457;-79
2022/08/11 10:44:52;;;;;;;5.75;1.63;;;;;;;;;;5121349;27;20034;-80
2022/08/11 10:47:34;;;;;;;3.50;1.45;;;;;;;;;;5114840;27;20051;-79
2022/08/11 11:01:01;;;;;;;3.83;1.33;;;;;;;;;;5127727;27;20084;-80
2022/08/11 11:03:28;;;;;;;7.78;1.42;;;;;;;;;;5134672;27;20114;-79
2022/08/11 11:05:57;;;;;;;4.07;1.30;;;;;;;;;;5134489;27;20027;-79
2022/08/11 11:11:12;;;;;;;3.38;1.30;;;;;;;;;;5134484;27;20077;-80
2022/08/11 11:19:10;;;;;;;2.25;1.10;;;;;;;;;;5118969;27;20057;-79
2022/08/11 11:21:38;;;;;;;4.60;1.48;;;;;;;;;;5114323;27;20020;-79
2022/08/11 11:24:14;;;;;;;2.90;1.20;;;;;;;;;;5121661;27;20388;-79
2022/08/11 11:26:58;;;;;;;7.10;1.77;;;;;;;;;;5124242;27;20555;-79
2022/08/11 11:29:43;;;;;;;5.22;1.67;;;;;;;;;;5123950;27;20058;-79
2022/08/11 11:32:23;;;;;;;2.80;1.17;;;;;;;;;;5125005;27;20027;-80
2022/08/11 11:35:13;;;;;;;5.63;1.40;;;;;;;;;;5115863;27;20057;-79
2022/08/11 11:37:40;;;;;;;5.78;1.30;;;;;;;;;;5112502;27;20364;-80
2022/08/11 11:40:11;;;;;;;5.15;1.30;;;;;;;;;;5118646;27;20058;-80
2022/08/11 11:42:39;;;;;;;3.13;1.10;;;;;;;;;;5124992;27;20029;-79
2022/08/11 11:45:05;;;;;;;8.45;1.35;;;;;;;;;;5131122;27;20026;-80
2022/08/11 11:47:31;;;;;;;4.80;1.85;;;;;;;;;;5122900;27;20023;-79
2022/08/11 11:49:58;;;;;;;2.67;0.93;;;;;;;;;;5121629;27;20035;-79
2022/08/11 11:52:24;;;;;;;2.67;1.20;;;;;;;;;;5108933;27;20191;-79
2022/08/11 11:54:52;;;;;;;5.47;1.20;;;;;;;;;;5119220;27;20031;-80
2022/08/11 12:02:56;;;;;;;5.88;1.27;;;;;;;;;;5113237;28;20105;-80
2022/08/11 12:05:22;;;;;;;3.05;1.25;;;;;;;;;;5113251;28;20027;-79
2022/08/11 12:10:34;;;;;;;4.18;1.48;;;;;;;;;;5114070;28;20038;-80
2022/08/11 12:15:48;;;;;;;5.18;1.38;;;;;;;;;;5118449;28;20157;-76
2022/08/11 12:18:15;;;;;;;2.25;1.20;;;;;;;;;;5109699;28;20039;-75
2022/08/11 12:20:44;;;;;;;6.18;1.40;;;;;;;;;;5112649;28;20020;-75
2022/08/11 12:28:39;;;;;;;2.95;1.40;;;;;;;;;;5111633;28;20035;-76
2022/08/11 12:31:08;;;;;;;4.55;1.23;;;;;;;;;;5112831;28;20123;-75
2022/08/11 12:33:35;;;;;;;2.35;1.38;;;;;;;;;;5112799;27;20500;-76
2022/08/11 12:36:01;;;;;;;3.28;1.50;;;;;;;;;;5117281;27;20098;-75
2022/08/11 12:38:27;;;;;;;6.15;1.75;;;;;;;;;;5115155;28;20507;-75
2022/08/11 12:46:36;;;;;;;5.30;1.08;;;;;;;;;;5116550;27;20124;-76
2022/08/11 12:51:57;;;;;;;1.52;1.15;;;;;;;;;;5113057;27;20077;-76
2022/08/11 12:54:42;;;;;;;5.95;1.92;;;;;;;;;;5125826;27;20043;-75
2022/08/11 13:05:32;;;;;;;2.85;1.40;;;;;;;;;;5113453;27;20042;-80
2022/08/11 13:08:00;;;;;;;5.93;1.50;;;;;;;;;;5136876;27;20106;-79
2022/08/11 13:13:13;;;;;;;5.05;1.50;;;;;;;;;;5116312;28;20038;-80
2022/08/11 13:15:39;;;;;;;6.57;1.40;;;;;;;;;;5122106;27;20015;-80
2022/08/11 13:18:08;;;;;;;3.03;1.38;;;;;;;;;;5136561;27;20027;-80
2022/08/11 13:20:35;;;;;;;4.38;1.40;;;;;;;;;;5136607;27;20023;-80
2022/08/11 13:23:01;;;;;;;6.85;1.50;;;;;;;;;;5126393;27;20575;-79
2022/08/11 13:25:30;;;;;;;8.73;1.58;;;;;;;;;;5125571;27;20049;-80
2022/08/11 13:27:57;;;;;;;5.18;1.40;;;;;;;;;;5124260;27;20020;-79
2022/08/11 13:33:10;;;;;;;3.40;1.48;;;;;;;;;;5135505;27;20038;-79
2022/08/11 13:35:38;;;;;;;2.70;1.33;;;;;;;;;;5135961;27;20084;-79
2022/08/11 13:38:05;;;;;;;6.00;1.67;;;;;;;;;;5118976;27;20043;-83
2022/08/11 13:40:32;;;;;;;8.95;1.30;;;;;;;;;;5118133;27;20019;-79
2022/08/11 13:42:58;;;;;;;5.22;1.35;;;;;;;;;;5119271;27;20028;-79
2022/08/11 13:45:25;;;;;;;4.63;1.60;;;;;;;;;;5108430;27;20089;-79
2022/08/11 13:48:01;;;;;;;5.53;1.40;;;;;;;;;;5103656;28;20035;-81
2022/08/11 13:51:29;;;;;;;6.00;1.40;;;;;;;;;;5122167;27;20371;-81
2022/08/11 13:53:15;;;;;;;6.85;1.40;;;;;;;;;;5128167;27;20050;-81
2022/08/11 13:55:41;;;;;;;4.30;1.30;;;;;;;;;;5114003;27;20046;-81
2022/08/11 13:58:10;;;;;;;2.13;1.38;;;;;;;;;;5097354;28;20032;-85
2022/08/11 14:00:37;;;;;;;3.83;1.40;;;;;;;;;;5097459;28;20020;-82
2022/08/11 14:03:05;;;;;;;3.65;1.80;;;;;;;;;;5115696;28;20024;-80
2022/08/11 14:05:37;;;;;;;4.72;1.30;;;;;;;;;;5121732;27;20012;-80
2022/08/11 14:08:07;;;;;;;5.82;1.20;;;;;;;;;;5114733;28;20361;-80
2022/08/11 14:10:34;;;;;;;2.55;1.20;;;;;;;;;;5112007;27;20023;-80
2022/08/11 14:15:48;;;;;;;2.47;1.38;;;;;;;;;;5114633;28;20038;-78
2022/08/11 14:18:21;;;;;;;2.95;1.15;;;;;;;;;;5114839;28;20028;-78
2022/08/11 14:23:37;;;;;;;3.67;1.35;;;;;;;;;;5114967;27;20046;-79
2022/08/11 14:26:45;;;;;;;4.53;1.42;;;;;;;;;;5118058;27;20020;-79
2022/08/11 14:29:01;;;;;;;2.53;1.55;;;;;;;;;;5115544;27;20031;-79
2022/08/11 14:31:28;;;;;;;2.85;1.10;;;;;;;;;;5110181;27;20023;-79
2022/08/11 14:33:55;;;;;;;3.33;1.23;;;;;;;;;;5106387;28;20114;-79
2022/08/11 14:36:23;;;;;;;3.95;1.30;;;;;;;;;;5113138;28;20024;-79
2022/08/11 14:38:50;;;;;;;6.05;1.30;;;;;;;;;;5114040;28;20107;-79
2022/08/11 14:47:06;;;;;;;3.05;1.65;;;;;;;;;;5122852;27;20054;-79
2022/08/11 14:49:38;;;;;;;3.10;1.23;;;;;;;;;;5111119;28;20028;-79
2022/08/11 14:52:06;;;;;;;2.75;1.25;;;;;;;;;;5114375;28;20030;-79
2022/08/11 14:57:18;;;;;;;3.28;1.20;;;;;;;;;;5113614;28;20069;-80
2022/08/11 14:59:48;;;;;;;4.05;1.10;;;;;;;;;;5114313;28;20032;-80
2022/08/11 15:05:03;;;;;;;2.20;1.30;;;;;;;;;;5114545;28;20034;-79
2022/08/11 15:07:30;;;;;;;2.65;1.20;;;;;;;;;;5114390;28;20015;-79
2022/08/11 15:10:01;;;;;;;3.78;1.40;;;;;;;;;;5114144;28;20020;-81
2022/08/11 15:12:28;;;;;;;1.40;1.10;;;;;;;;;;5113943;28;20047;-79
2022/08/11 15:17:40;;;;;;;4.13;1.00;;;;;;;;;;5113062;28;20067;-79
2022/08/11 15:25:45;;;;;;;2.15;1.17;;;;;;;;;;5114340;28;20042;-79
2022/08/11 15:39:19;;;;;;;1.70;1.20;;;;;;;;;;5113995;28;20038;-80
2022/08/11 15:45:47;;;;;;;2.30;1.20;;;;;;;;;;5113267;27;20093;-80
2022/08/11 15:47:25;;;;;;;3.88;1.30;;;;;;;;;;5109481;28;20019;-79
2022/08/11 15:49:54;;;;;;;5.97;1.88;;;;;;;;;;5101574;28;20450;-80
2022/08/11 15:52:25;;;;;;;5.82;1.20;;;;;;;;;;5122592;27;20050;-80
2022/08/11 15:54:51;;;;;;;;;;;;;;;;;;5113691;28;20110;-80
2022/08/11 16:05:36;;;;;;;8.70;1.48;;;;;;;;;;5125079;27;20072;-81
2022/08/11 16:08:02;;;;;;;4.05;1.23;;;;;;;;;;5113600;28;20410;-80
2022/08/11 16:10:29;;;;;;;5.20;1.40;;;;;;;;;;5116705;28;20020;-81
2022/08/11 16:18:41;;;;;;;3.10;1.00;;;;;;;;;;5118443;28;20100;-81
2022/08/11 16:21:09;;;;;;;5.78;1.23;;;;;;;;;;5113348;28;20015;-80
2022/08/11 16:23:36;;;;;;;3.50;1.60;;;;;;;;;;5112613;28;20035;-79
2022/08/11 16:26:03;;;;;;;2.30;1.40;;;;;;;;;;5109060;28;20012;-79
2022/08/11 16:28:31;;;;;;;9.70;2.60;;;;;;;;;;5115957;28;20023;-80
2022/08/11 16:30:57;;;;;;;5.38;1.38;;;;;;;;;;5112101;28;20039;-80
2022/08/11 16:33:25;;;;;;;2.88;1.40;;;;;;;;;;5109171;28;20019;-80
2022/08/11 16:38:38;;;;;;;4.68;1.30;;;;;;;;;;5111405;28;20056;-79
2022/08/11 16:41:11;;;;;;;4.38;1.30;;;;;;;;;;5118729;28;20094;-78
2022/08/11 16:49:04;;;;;;;5.53;1.40;;;;;;;;;;5118200;28;20055;-79
2022/08/11 16:51:31;;;;;;;5.28;1.35;;;;;;;;;;5115301;28;20024;-79
2022/08/11 16:53:57;;;;;;;4.43;1.48;;;;;;;;;;5110371;28;20376;-79
2022/08/11 16:56:26;;;;;;;3.90;1.50;;;;;;;;;;5113365;28;20118;-77
2022/08/11 16:59:15;;;;;;;6.15;1.65;;;;;;;;;;5112892;28;20050;-78
2022/08/11 17:02:01;;;;;;;3.38;1.60;;;;;;;;;;5109828;28;20047;-80
2022/08/11 17:13:22;;;;;;;2.88;1.55;;;;;;;;;;5113807;28;20373;-81
2022/08/11 17:16:07;;;;;;;1.85;1.30;;;;;;;;;;5094926;28;20022;-80
2022/08/11 17:18:44;;;;;;;2.85;1.20;;;;;;;;;;5116506;28;20012;-81
2022/08/11 17:21:16;;;;;;;2.88;1.40;;;;;;;;;;5116795;28;20087;-81
2022/08/11 17:23:51;;;;;;;5.18;1.30;;;;;;;;;;5097140;28;20023;-80
2022/08/11 17:27:16;;;;;;;4.57;1.15;;;;;;;;;;5096737;28;20020;-80
2022/08/11 17:29:20;;;;;;;2.38;1.20;;;;;;;;;;5085635;28;20369;-81
2022/08/11 17:37:18;;;;;;;6.20;1.40;;;;;;;;;;5114976;27;20089;-82
2022/08/11 17:39:45;;;;;;;3.28;1.20;;;;;;;;;;5116820;28;20059;-80
2022/08/11 17:50:28;;;;;;;2.92;1.15;;;;;;;;;;5096415;28;20186;-81
2022/08/11 18:01:10;;;;;;;2.83;1.38;;;;;;;;;;5074773;28;20159;-79
2022/08/11 18:03:41;;;;;;;2.83;1.27;;;;;;;;;;5075032;28;20044;-79
2022/08/11 18:06:09;;;;;;;5.38;1.30;;;;;;;;;;5074729;28;20029;-79
